createdAt,value
2016-05-21T00:00:02.183Z,98.18
2016-05-21T00:01:02.170Z,98.18
2016-05-21T00:02:02.141Z,98.18
2016-05-21T00:03:02.128Z,98.18
2016-05-21T00:04:02.100Z,98.28
2016-05-21T00:05:02.086Z,98.18
2016-05-21T00:06:01.902Z,98.47
2016-05-21T00:07:01.888Z,98.38
2016-05-21T00:08:01.861Z,98.18
2016-05-21T00:09:01.988Z,97.99
2016-05-21T00:10:01.975Z,98.09
2016-05-21T00:11:02.383Z,98.09
2016-05-21T00:12:01.930Z,98.28
2016-05-21T00:13:01.949Z,98.47
2016-05-21T00:14:01.920Z,98.18
2016-05-21T00:15:01.922Z,97.99
2016-05-21T00:16:01.910Z,98.47
2016-05-21T00:17:01.905Z,98.47
2016-05-21T00:18:01.882Z,98.18
2016-05-21T00:19:01.875Z,98.09
2016-05-21T00:20:01.868Z,98.47
2016-05-21T00:21:01.860Z,98.38
2016-05-21T00:22:01.819Z,97.99
2016-05-21T00:23:01.810Z,97.9
2016-05-21T00:24:01.782Z,98.18
2016-05-21T00:25:01.773Z,98.47
2016-05-21T00:26:01.871Z,98.18
2016-05-21T00:27:01.718Z,98.18
2016-05-21T00:28:01.707Z,98.47
2016-05-21T00:29:01.522Z,98.47
2016-05-21T00:30:01.666Z,98.38
2016-05-21T00:31:01.638Z,98.47
2016-05-21T00:32:01.470Z,98.38
2016-05-21T00:33:01.613Z,98.38
2016-05-21T00:34:01.412Z,97.52
2016-05-21T00:35:01.556Z,97.8
2016-05-21T00:36:01.528Z,97.52
2016-05-21T00:37:01.498Z,97.9
2016-05-21T00:38:01.486Z,97.8
2016-05-21T00:39:01.473Z,98.09
2016-05-21T00:40:01.459Z,97.8
2016-05-21T00:41:01.275Z,97.61
2016-05-21T00:42:01.419Z,97.71
2016-05-21T00:43:01.217Z,97.61
2016-05-21T00:44:01.361Z,97.9
2016-05-21T00:45:01.347Z,97.52
2016-05-21T00:46:01.320Z,97.33
2016-05-21T00:47:01.292Z,97.23
2016-05-21T00:48:01.122Z,97.71
2016-05-21T00:49:01.250Z,97.47
2016-05-21T00:50:01.236Z,97.37
2016-05-21T00:51:01.208Z,97.66
2016-05-21T00:52:01.196Z,97.56
2016-05-21T00:53:01.166Z,97.37
2016-05-21T00:54:00.982Z,97.85
2016-05-21T00:55:01.140Z,97.47
2016-05-21T00:56:01.143Z,97.75
2016-05-21T00:57:01.084Z,97.28
2016-05-21T00:58:01.054Z,97.56
2016-05-21T00:59:01.026Z,97.85
2016-05-21T01:00:01.013Z,97.47
2016-05-21T01:01:00.985Z,97.47
2016-05-21T01:02:00.988Z,97.66
2016-05-21T01:03:00.943Z,98.04
2016-05-21T01:04:00.931Z,97.75
2016-05-21T01:05:00.902Z,98.04
2016-05-21T01:06:00.889Z,98.71
2016-05-21T01:07:00.861Z,98.42
2016-05-21T01:08:00.832Z,98.33
2016-05-21T01:09:00.819Z,98.71
2016-05-21T01:10:00.790Z,98.71
2016-05-21T01:11:00.871Z,99.04
2016-05-21T01:12:00.749Z,98.99
2016-05-21T01:13:00.736Z,98.8
2016-05-21T01:14:00.707Z,99.28
2016-05-21T01:15:00.679Z,98.85
2016-05-21T01:16:00.666Z,98.85
2016-05-21T01:17:00.638Z,98.85
2016-05-21T01:18:00.609Z,99.43
2016-05-21T01:19:00.596Z,99.33
2016-05-21T01:20:00.411Z,98.85
2016-05-21T01:21:00.399Z,99.14
2016-05-21T01:22:00.369Z,98.85
2016-05-21T01:23:00.497Z,98.37
2016-05-21T01:24:00.500Z,98.47
2016-05-21T01:25:00.471Z,99.04
2016-05-21T01:26:00.287Z,98.85
2016-05-21T01:27:00.257Z,99.33
2016-05-21T01:28:00.401Z,99.28
2016-05-21T01:29:00.498Z,99.14
2016-05-21T01:30:00.360Z,98.99
2016-05-21T01:31:00.332Z,98.8
2016-05-21T01:32:00.303Z,99.28
2016-05-21T01:33:00.290Z,98.99
2016-05-21T01:34:00.277Z,99.18
2016-05-21T01:35:00.248Z,99.37
2016-05-21T01:36:00.220Z,99.76
2016-05-21T01:37:00.207Z,99.95
2016-05-21T01:38:00.178Z,99.99
2016-05-21T01:39:00.150Z,99.99
2016-05-21T01:40:00.121Z,99.99
2016-05-21T01:41:00.186Z,99.99
2016-05-21T01:42:00.080Z,99.99
2016-05-21T01:43:00.067Z,99.99
2016-05-21T01:44:00.039Z,99.99
2016-05-21T01:45:00.010Z,99.99
2016-05-21T01:45:59.997Z,99.99
2016-05-21T01:46:59.969Z,99.99
2016-05-21T01:47:59.955Z,99.99
2016-05-21T01:48:59.927Z,99.99
2016-05-21T01:49:59.898Z,99.99
2016-05-21T01:50:59.885Z,99.99
2016-05-21T01:51:59.872Z,99.99
2016-05-21T01:52:59.843Z,99.99
2016-05-21T01:53:59.815Z,99.99
2016-05-21T01:54:59.802Z,99.99
2016-05-21T01:55:59.633Z,99.99
2016-05-21T01:56:59.761Z,99.99
2016-05-21T01:57:59.732Z,99.99
2016-05-21T01:58:59.704Z,99.99
2016-05-21T01:59:59.691Z,99.99
2016-05-21T02:00:59.646Z,99.99
2016-05-21T02:01:59.634Z,99.99
2016-05-21T02:02:59.620Z,99.99
2016-05-21T02:03:59.592Z,99.99
2016-05-21T02:04:59.563Z,99.99
2016-05-21T02:05:59.550Z,99.99
2016-05-21T02:06:59.522Z,99.99
2016-05-21T02:07:59.509Z,99.99
2016-05-21T02:08:59.480Z,99.99
2016-05-21T02:09:59.467Z,99.99
2016-05-21T02:10:59.439Z,99.99
2016-05-21T02:11:59.411Z,99.99
2016-05-21T02:12:59.382Z,99.99
2016-05-21T02:13:59.369Z,99.99
2016-05-21T02:14:59.372Z,99.99
2016-05-21T02:15:59.343Z,99.99
2016-05-21T02:16:59.314Z,99.99
2016-05-21T02:17:59.286Z,99.99
2016-05-21T02:18:59.257Z,99.99
2016-05-21T02:19:59.228Z,99.99
2016-05-21T02:20:59.216Z,99.99
2016-05-21T02:21:59.188Z,99.99
2016-05-21T02:22:59.158Z,99.99
2016-05-21T02:23:59.146Z,99.99
2016-05-21T02:24:59.133Z,99.99
2016-05-21T02:25:59.105Z,99.99
2016-05-21T02:26:59.076Z,99.99
2016-05-21T02:27:59.046Z,99.99
2016-05-21T02:28:59.035Z,99.99
2016-05-21T02:29:59.021Z,99.99
2016-05-21T02:30:58.837Z,99.99
2016-05-21T02:31:58.965Z,99.99
2016-05-21T02:32:58.935Z,99.99
2016-05-21T02:33:58.923Z,99.99
2016-05-21T02:34:58.893Z,99.99
2016-05-21T02:35:58.866Z,99.99
2016-05-21T02:36:58.852Z,99.99
2016-05-21T02:37:58.824Z,99.99
2016-05-21T02:38:58.796Z,99.99
2016-05-21T02:39:58.782Z,99.99
2016-05-21T02:40:58.754Z,99.99
2016-05-21T02:41:58.725Z,99.99
2016-05-21T02:42:58.556Z,99.99
2016-05-21T02:43:58.684Z,99.99
2016-05-21T02:44:58.686Z,99.99
2016-05-21T02:45:58.642Z,99.99
2016-05-21T02:46:58.629Z,99.99
2016-05-21T02:47:58.600Z,99.99
2016-05-21T02:48:58.572Z,99.99
2016-05-21T02:49:58.388Z,99.99
2016-05-21T02:50:58.531Z,99.99
2016-05-21T02:51:58.518Z,99.99
2016-05-21T02:52:58.567Z,99.99
2016-05-21T02:53:58.461Z,99.99
2016-05-21T02:54:58.526Z,99.99
2016-05-21T02:55:58.419Z,99.99
2016-05-21T02:56:58.391Z,99.99
2016-05-21T02:57:58.362Z,99.99
2016-05-21T02:58:58.349Z,99.99
2016-05-21T02:59:58.321Z,99.99
2016-05-21T03:00:58.308Z,99.99
2016-05-21T03:01:58.279Z,99.99
2016-05-21T03:02:58.250Z,99.99
2016-05-21T03:03:58.222Z,99.99
2016-05-21T03:04:58.209Z,99.99
2016-05-21T03:05:58.196Z,99.99
2016-05-21T03:06:58.167Z,99.99
2016-05-21T03:07:58.139Z,99.99
2016-05-21T03:08:58.110Z,99.99
2016-05-21T03:09:58.113Z,99.99
2016-05-21T03:10:58.225Z,99.99
2016-05-21T03:11:58.040Z,99.99
2016-05-21T03:12:58.012Z,99.99
2016-05-21T03:13:58.014Z,99.99
2016-05-21T03:14:57.970Z,99.99
2016-05-21T03:15:57.958Z,99.99
2016-05-21T03:16:57.928Z,99.99
2016-05-21T03:17:57.916Z,99.99
2016-05-21T03:18:57.887Z,99.99
2016-05-21T03:19:57.858Z,99.99
2016-05-21T03:20:57.847Z,99.99
2016-05-21T03:21:57.817Z,99.99
2016-05-21T03:22:57.805Z,99.99
2016-05-21T03:23:57.776Z,99.99
2016-05-21T03:24:57.747Z,99.99
2016-05-21T03:25:57.578Z,99.99
2016-05-21T03:26:57.705Z,99.99
2016-05-21T03:27:57.678Z,99.99
2016-05-21T03:28:57.649Z,99.99
2016-05-21T03:29:57.635Z,99.99
2016-05-21T03:30:57.623Z,99.99
2016-05-21T03:31:57.594Z,99.99
2016-05-21T03:32:57.565Z,99.99
2016-05-21T03:33:57.537Z,99.99
2016-05-21T03:34:57.509Z,99.99
2016-05-21T03:35:57.496Z,99.99
2016-05-21T03:36:57.482Z,99.99
2016-05-21T03:37:57.454Z,99.99
2016-05-21T03:38:57.426Z,99.99
2016-05-21T03:39:57.397Z,99.99
2016-05-21T03:40:57.228Z,99.99
2016-05-21T03:41:57.371Z,99.99
2016-05-21T03:42:57.342Z,99.99
2016-05-21T03:43:57.314Z,99.99
2016-05-21T03:44:57.129Z,99.99
2016-05-21T03:45:57.272Z,99.99
2016-05-21T03:46:57.244Z,99.99
2016-05-21T03:47:57.215Z,99.99
2016-05-21T03:48:57.187Z,99.99
2016-05-21T03:49:57.174Z,99.99
2016-05-21T03:50:57.145Z,99.99
2016-05-21T03:51:57.133Z,99.99
2016-05-21T03:52:56.947Z,99.99
2016-05-21T03:53:56.919Z,99.99
2016-05-21T03:54:56.906Z,99.99
2016-05-21T03:55:57.049Z,99.99
2016-05-21T03:56:57.021Z,99.99
2016-05-21T03:57:56.836Z,99.99
2016-05-21T03:58:56.964Z,99.99
2016-05-21T03:59:56.951Z,99.99
2016-05-21T04:00:56.922Z,99.99
2016-05-21T04:01:56.893Z,99.99
2016-05-21T04:02:56.880Z,99.99
2016-05-21T04:03:56.852Z,99.99
2016-05-21T04:04:56.824Z,99.99
2016-05-21T04:05:56.810Z,99.99
2016-05-21T04:06:56.782Z,99.99
2016-05-21T04:07:56.754Z,99.99
2016-05-21T04:08:56.725Z,99.99
2016-05-21T04:09:56.712Z,99.99
2016-05-21T04:10:56.652Z,99.99
2016-05-21T04:11:56.670Z,99.99
2016-05-21T04:12:56.657Z,99.99
2016-05-21T04:13:56.629Z,99.99
2016-05-21T04:14:56.601Z,99.99
2016-05-21T04:15:56.588Z,99.99
2016-05-21T04:16:56.559Z,99.99
2016-05-21T04:17:56.531Z,99.99
2016-05-21T04:18:56.517Z,99.99
2016-05-21T04:19:56.489Z,99.99
2016-05-21T04:20:56.461Z,99.99
2016-05-21T04:21:56.448Z,99.99
2016-05-21T04:22:56.419Z,99.99
2016-05-21T04:23:56.406Z,99.99
2016-05-21T04:24:56.377Z,99.99
2016-05-21T04:25:56.209Z,99.99
2016-05-21T04:26:56.991Z,99.99
2016-05-21T04:27:56.322Z,99.99
2016-05-21T04:28:56.294Z,99.99
2016-05-21T04:29:56.266Z,99.99
2016-05-21T04:30:56.253Z,99.99
2016-05-21T04:31:56.224Z,99.99
2016-05-21T04:32:56.227Z,99.99
2016-05-21T04:33:56.182Z,99.99
2016-05-21T04:34:56.154Z,99.99
2016-05-21T04:35:55.985Z,99.99
2016-05-21T04:36:56.112Z,99.9
2016-05-21T04:37:56.085Z,99.62
2016-05-21T04:38:55.915Z,99.62
2016-05-21T04:39:56.043Z,99.71
2016-05-21T04:40:56.312Z,99.85
2016-05-21T04:41:55.845Z,98.9
2016-05-21T04:42:55.988Z,98.9
2016-05-21T04:43:55.959Z,99.09
2016-05-21T04:44:55.931Z,98.71
2016-05-21T04:45:55.918Z,98.61
2016-05-21T04:46:55.890Z,98.33
2016-05-21T04:47:55.876Z,98.52
2016-05-21T04:48:55.848Z,98.23
2016-05-21T04:49:55.836Z,98.13
2016-05-21T04:50:55.807Z,98.13
2016-05-21T04:51:55.778Z,97.94
2016-05-21T04:52:55.765Z,97.94
2016-05-21T04:53:55.736Z,97.61
2016-05-21T04:54:55.724Z,98.28
2016-05-21T04:55:55.711Z,97.61
2016-05-21T04:56:55.683Z,97.33
2016-05-21T04:57:55.653Z,96.47
2016-05-21T04:58:55.624Z,96.94
2016-05-21T04:59:55.613Z,96.37
2016-05-21T05:00:55.583Z,96.03
2016-05-21T05:01:55.571Z,95.36
2016-05-21T05:02:55.541Z,94.31
2016-05-21T05:03:55.529Z,94.5
2016-05-21T05:04:55.516Z,94.7
2016-05-21T05:05:55.488Z,93.93
2016-05-21T05:06:55.474Z,93.45
2016-05-21T05:07:55.446Z,93.26
2016-05-21T05:08:55.417Z,93.45
2016-05-21T05:09:55.405Z,92.69
2016-05-21T05:10:55.626Z,92.97
2016-05-21T05:11:55.207Z,92.97
2016-05-21T05:12:55.335Z,92.69
2016-05-21T05:13:55.321Z,92.3
2016-05-21T05:14:55.309Z,92.59
2016-05-21T05:15:55.281Z,92.49
2016-05-21T05:16:55.252Z,92.16
2016-05-21T05:17:55.223Z,92.35
2016-05-21T05:18:55.210Z,91.87
2016-05-21T05:19:55.197Z,91.2
2016-05-21T05:20:55.184Z,91.2
2016-05-21T05:21:55.156Z,91.01
2016-05-21T05:22:55.127Z,91.01
2016-05-21T05:23:55.114Z,90.39
2016-05-21T05:24:55.101Z,90.09
2016-05-21T05:25:55.166Z,89.23
2016-05-21T05:26:55.060Z,89.04
2016-05-21T05:27:55.031Z,89.33
2016-05-21T05:28:55.018Z,88.47
2016-05-21T05:29:54.990Z,88.51
2016-05-21T05:30:54.977Z,88.13
2016-05-21T05:31:54.791Z,87.94
2016-05-21T05:32:54.951Z,86.02
2016-05-21T05:33:54.922Z,86.6
2016-05-21T05:34:54.894Z,86.6
2016-05-21T05:35:54.880Z,86.02
2016-05-21T05:36:54.853Z,86.6
2016-05-21T05:37:54.839Z,86.5
2016-05-21T05:38:54.810Z,85.93
2016-05-21T05:39:54.798Z,85.45
2016-05-21T05:40:54.769Z,85.93
2016-05-21T05:41:54.600Z,85.45
2016-05-21T05:42:54.728Z,85.93
2016-05-21T05:43:54.715Z,85.54
2016-05-21T05:44:54.702Z,85.64
2016-05-21T05:45:54.689Z,85.35
2016-05-21T05:46:54.504Z,85.64
2016-05-21T05:47:54.631Z,85.74
2016-05-21T05:48:54.603Z,85.74
2016-05-21T05:49:54.434Z,85.78
2016-05-21T05:50:54.578Z,85.54
2016-05-21T05:51:54.548Z,85.83
2016-05-21T05:52:54.380Z,85.58
2016-05-21T05:53:54.523Z,85.25
2016-05-21T05:54:54.510Z,85.45
2016-05-21T05:55:54.481Z,85.11
2016-05-21T05:56:54.312Z,85.35
2016-05-21T05:57:54.440Z,84.82
2016-05-21T05:58:54.411Z,84.91
2016-05-21T05:59:54.399Z,84.63
2016-05-21T06:00:54.385Z,84.44
2016-05-21T06:01:54.357Z,84
2016-05-21T06:02:54.344Z,83.91
2016-05-21T06:03:54.331Z,83.04
2016-05-21T06:04:54.303Z,82.27
2016-05-21T06:05:54.274Z,82.18
2016-05-21T06:06:54.261Z,82.27
2016-05-21T06:07:54.232Z,82.12
2016-05-21T06:08:54.235Z,81.26
2016-05-21T06:09:54.207Z,80.87
2016-05-21T06:10:54.179Z,80.53
2016-05-21T06:11:54.165Z,80.11
2016-05-21T06:12:54.137Z,78.7
2016-05-21T06:13:54.140Z,79.09
2016-05-21T06:14:54.110Z,78.55
2016-05-21T06:15:54.098Z,78.23
2016-05-21T06:16:54.070Z,76.82
2016-05-21T06:17:54.056Z,77.01
2016-05-21T06:18:54.043Z,76.82
2016-05-21T06:19:54.015Z,75.71
2016-05-21T06:20:54.017Z,75.9
2016-05-21T06:21:53.989Z,74.27
2016-05-21T06:22:53.961Z,74.75
2016-05-21T06:23:53.948Z,74.3
2016-05-21T06:24:53.934Z,73.44
2016-05-21T06:25:53.922Z,72.52
2016-05-21T06:26:53.737Z,70.34
2016-05-21T06:27:53.880Z,67.03
2016-05-21T06:28:53.867Z,66.11
2016-05-21T06:29:53.839Z,65.24
2016-05-21T06:30:53.669Z,66.97
2016-05-21T06:31:53.813Z,66.11
2016-05-21T06:32:53.799Z,66.94
2016-05-21T06:33:53.786Z,66.11
2016-05-21T06:34:53.774Z,65.63
2016-05-21T06:35:53.746Z,65.69
2016-05-21T06:36:53.733Z,64.76
2016-05-21T06:37:53.563Z,63.98
2016-05-21T06:38:53.550Z,63.54
2016-05-21T06:39:53.694Z,62.96
2016-05-21T06:40:53.666Z,63.85
2016-05-21T06:41:53.495Z,62.02
2016-05-21T06:42:53.655Z,61.54
2016-05-21T06:43:53.626Z,60.03
2016-05-21T06:44:53.457Z,59.96
2016-05-21T06:45:53.600Z,59.86
2016-05-21T06:46:53.587Z,60.06
2016-05-21T06:47:53.574Z,59.67
2016-05-21T06:48:53.546Z,58.9
2016-05-21T06:49:53.549Z,58.54
2016-05-21T06:50:53.379Z,57.38
2016-05-21T06:51:53.507Z,57.48
2016-05-21T06:52:53.494Z,55.96
2016-05-21T06:53:53.481Z,55.51
2016-05-21T06:54:53.468Z,53.99
2016-05-21T06:55:53.300Z,53.72
2016-05-21T06:56:53.286Z,53.89
2016-05-21T06:57:53.430Z,53.86
2016-05-21T06:58:53.433Z,54.57
2016-05-21T06:59:53.403Z,53.69
2016-05-21T07:00:53.234Z,52.85
2016-05-21T07:01:53.378Z,51.3
2016-05-21T07:02:53.364Z,49.77
2016-05-21T07:03:53.352Z,49.44
2016-05-21T07:04:53.339Z,49.27
2016-05-21T07:05:53.327Z,49.46
2016-05-21T07:06:53.329Z,51.16
2016-05-21T07:07:53.300Z,51.23
2016-05-21T07:08:53.288Z,51.42
2016-05-21T07:09:53.290Z,52.68
2016-05-21T07:10:53.276Z,53.14
2016-05-21T07:11:53.280Z,52.46
2016-05-21T07:12:53.251Z,53.23
2016-05-21T07:13:53.098Z,53.04
2016-05-21T07:14:53.226Z,52.39
2016-05-21T07:15:53.212Z,53.43
2016-05-21T07:16:53.199Z,53.53
2016-05-21T07:17:53.187Z,53.91
2016-05-21T07:18:53.174Z,54.47
2016-05-21T07:19:53.176Z,54.73
2016-05-21T07:20:53.148Z,55.79
2016-05-21T07:21:53.151Z,55.31
2016-05-21T07:22:53.122Z,56.09
2016-05-21T07:23:53.109Z,55.41
2016-05-21T07:24:53.095Z,55.6
2016-05-21T07:25:53.084Z,55.92
2016-05-21T07:26:53.117Z,54.25
2016-05-21T07:27:53.056Z,54.08
2016-05-21T07:28:53.060Z,54.08
2016-05-21T07:29:53.062Z,53.69
2016-05-21T07:30:53.034Z,52.46
2016-05-21T07:31:53.022Z,52.95
2016-05-21T07:32:53.008Z,52.85
2016-05-21T07:33:52.995Z,52.58
2016-05-21T07:34:52.982Z,52.1
2016-05-21T07:35:52.953Z,52.1
2016-05-21T07:36:52.800Z,53.07
2016-05-21T07:37:52.943Z,51.37
2016-05-21T07:38:52.930Z,49.46
2016-05-21T07:39:52.918Z,50.79
2016-05-21T07:40:52.921Z,48.76
2016-05-21T07:41:52.751Z,47.28
2016-05-21T07:42:52.879Z,45.45
2016-05-21T07:43:52.725Z,44.6
2016-05-21T07:44:52.852Z,44.04
2016-05-21T07:45:52.855Z,44.14
2016-05-21T07:46:52.687Z,45.18
2016-05-21T07:47:52.830Z,46.06
2016-05-21T07:48:52.817Z,46.98
2016-05-21T07:49:52.820Z,47.83
2016-05-21T07:50:52.807Z,47.91
2016-05-21T07:51:52.809Z,48.69
2016-05-21T07:52:52.623Z,48.88
2016-05-21T07:53:52.768Z,48.78
2016-05-21T07:54:52.770Z,48.95
2016-05-21T07:55:52.757Z,49.63
2016-05-21T07:56:52.745Z,49.56
2016-05-21T07:57:52.731Z,49.54
2016-05-21T07:58:52.719Z,49.73
2016-05-21T07:59:52.706Z,49.92
2016-05-21T08:00:52.553Z,49.44
2016-05-21T08:01:52.680Z,49.51
2016-05-21T08:02:52.683Z,49.9
2016-05-21T08:03:52.669Z,50.77
2016-05-21T08:04:52.656Z,50.77
2016-05-21T08:05:52.644Z,51.23
2016-05-21T08:06:52.631Z,51.72
2016-05-21T08:07:52.618Z,52.58
2016-05-21T08:08:52.605Z,53.07
2016-05-21T08:09:52.592Z,53.04
2016-05-21T08:10:52.579Z,54.01
2016-05-21T08:11:52.566Z,54.3
2016-05-21T08:12:52.553Z,53.91
2016-05-21T08:13:52.384Z,53.59
2016-05-21T08:14:52.528Z,53.59
2016-05-21T08:15:52.529Z,55.05
2016-05-21T08:16:52.502Z,54.47
2016-05-21T08:17:52.488Z,54.08
2016-05-21T08:18:52.476Z,54.66
2016-05-21T08:19:52.463Z,54.47
2016-05-21T08:20:52.449Z,54.37
2016-05-21T08:21:52.437Z,54.66
2016-05-21T08:22:52.424Z,53.89
2016-05-21T08:23:52.411Z,53.57
2016-05-21T08:24:52.414Z,53.31
2016-05-21T08:25:52.385Z,52.56
2016-05-21T08:26:52.465Z,51.62
2016-05-21T08:27:52.359Z,51.32
2016-05-21T08:28:52.362Z,51.13
2016-05-21T08:29:52.334Z,50.65
2016-05-21T08:30:52.320Z,50.35
2016-05-21T08:31:52.323Z,50.65
2016-05-21T08:32:52.310Z,50.65
2016-05-21T08:33:52.281Z,50.65
2016-05-21T08:34:52.284Z,50.55
2016-05-21T08:35:52.256Z,50.94
2016-05-21T08:36:52.243Z,51.04
2016-05-21T08:37:52.245Z,51.81
2016-05-21T08:38:52.233Z,51.32
2016-05-21T08:39:52.219Z,51.3
2016-05-21T08:40:52.207Z,51.59
2016-05-21T08:41:52.350Z,51.42
2016-05-21T08:42:52.180Z,50.09
2016-05-21T08:43:52.168Z,49.54
2016-05-21T08:44:52.155Z,48.49
2016-05-21T08:45:52.141Z,48.1
2016-05-21T08:46:52.129Z,48.13
2016-05-21T08:47:52.116Z,48.88
2016-05-21T08:48:52.119Z,48.78
2016-05-21T08:49:52.090Z,48.69
2016-05-21T08:50:52.093Z,49.54
2016-05-21T08:51:52.079Z,50.21
2016-05-21T08:52:52.082Z,50.09
2016-05-21T08:53:51.913Z,50.09
2016-05-21T08:54:52.041Z,51.32
2016-05-21T08:55:52.028Z,51.13
2016-05-21T08:56:51.890Z,51.32
2016-05-21T08:57:51.846Z,51.72
2016-05-21T08:58:51.990Z,51.81
2016-05-21T08:59:52.008Z,51.98
2016-05-21T09:00:51.964Z,53.04
2016-05-21T09:01:51.966Z,54.66
2016-05-21T09:02:51.938Z,54.99
2016-05-21T09:03:51.940Z,54.9
2016-05-21T09:04:51.911Z,55.96
2016-05-21T09:05:51.915Z,55.77
2016-05-21T09:06:51.902Z,54.53
2016-05-21T09:07:51.873Z,55.6
2016-05-21T09:08:51.704Z,54.37
2016-05-21T09:09:51.864Z,53.89
2016-05-21T09:10:51.866Z,53.5
2016-05-21T09:11:52.353Z,53.11
2016-05-21T09:12:51.824Z,53.02
2016-05-21T09:13:51.811Z,53.5
2016-05-21T09:14:51.783Z,54.08
2016-05-21T09:15:51.785Z,53.81
2016-05-21T09:16:51.772Z,53.14
2016-05-21T09:17:51.782Z,52.75
2016-05-21T09:18:51.790Z,52.49
2016-05-21T09:19:51.797Z,52.2
2016-05-21T09:20:51.790Z,53.04
2016-05-21T09:21:51.814Z,52.46
2016-05-21T09:22:51.808Z,53.23
2016-05-21T09:23:51.803Z,53.04
2016-05-21T09:24:51.642Z,53.17
2016-05-21T09:25:51.793Z,52.87
2016-05-21T09:26:51.803Z,52.68
2016-05-21T09:27:51.776Z,51.62
2016-05-21T09:28:51.766Z,51.25
2016-05-21T09:29:51.756Z,51.93
2016-05-21T09:30:51.746Z,51.16
2016-05-21T09:31:51.736Z,50.57
2016-05-21T09:32:51.724Z,51.74
2016-05-21T09:33:51.712Z,50.67
2016-05-21T09:34:51.701Z,50.38
2016-05-21T09:35:51.688Z,51.74
2016-05-21T09:36:51.677Z,53.19
2016-05-21T09:37:51.664Z,52.12
2016-05-21T09:38:51.653Z,50.96
2016-05-21T09:39:51.639Z,51.84
2016-05-21T09:40:51.626Z,52.03
2016-05-21T09:41:51.458Z,52.2
2016-05-21T09:42:51.602Z,52.49
2016-05-21T09:43:51.604Z,52.39
2016-05-21T09:44:51.575Z,52.97
2016-05-21T09:45:51.562Z,52.97
2016-05-21T09:46:51.550Z,52.71
2016-05-21T09:47:51.537Z,53.45
2016-05-21T09:48:51.524Z,52.78
2016-05-21T09:49:51.353Z,52.39
2016-05-21T09:50:51.498Z,53.07
2016-05-21T09:51:51.484Z,54.81
2016-05-21T09:52:51.487Z,54.73
2016-05-21T09:53:51.474Z,55.53
2016-05-21T09:54:51.305Z,54.47
2016-05-21T09:55:51.433Z,54.49
2016-05-21T09:56:51.435Z,52.95
2016-05-21T09:57:51.407Z,54.3
2016-05-21T09:58:51.394Z,53.26
2016-05-21T09:59:51.397Z,52.97
2016-05-21T10:00:51.368Z,52.85
2016-05-21T10:01:51.371Z,53.85
2016-05-21T10:02:51.358Z,52.29
2016-05-21T10:03:51.330Z,53.94
2016-05-21T10:04:51.316Z,52.58
2016-05-21T10:05:51.304Z,53.26
2016-05-21T10:06:51.291Z,53.26
2016-05-21T10:07:51.121Z,52.1
2016-05-21T10:08:51.265Z,52.49
2016-05-21T10:09:51.252Z,53.91
2016-05-21T10:10:51.254Z,52.75
2016-05-21T10:11:51.335Z,53.63
2016-05-21T10:12:51.213Z,54.13
2016-05-21T10:13:51.200Z,53.85
2016-05-21T10:14:51.187Z,52.39
2016-05-21T10:15:51.173Z,53.36
2016-05-21T10:16:51.162Z,52.78
2016-05-21T10:17:51.008Z,51.72
2016-05-21T10:18:51.135Z,51.62
2016-05-21T10:19:50.966Z,52.29
2016-05-21T10:20:51.110Z,51.74
2016-05-21T10:21:51.112Z,49.99
2016-05-21T10:22:51.084Z,49.9
2016-05-21T10:23:51.118Z,49.39
2016-05-21T10:24:51.073Z,49.87
2016-05-21T10:25:51.044Z,49.87
2016-05-21T10:26:51.032Z,50.94
2016-05-21T10:27:51.035Z,50.82
2016-05-21T10:28:51.022Z,51.1
2016-05-21T10:29:50.993Z,52.36
2016-05-21T10:30:50.980Z,50.74
2016-05-21T10:32:05.124Z,50.26
2016-05-21T10:32:50.955Z,49.49
2016-05-21T10:33:50.957Z,48.71
2016-05-21T10:34:50.929Z,48.9
2016-05-21T10:35:50.775Z,48.81
2016-05-21T10:36:50.919Z,49.58
2016-05-21T10:37:50.890Z,50.65
2016-05-21T10:38:50.877Z,50.94
2016-05-21T10:39:50.880Z,50.07
2016-05-21T10:40:50.851Z,49.49
2016-05-21T10:41:50.884Z,49.99
2016-05-21T10:42:50.840Z,49.39
2016-05-21T10:43:50.812Z,50.07
2016-05-21T10:44:50.815Z,50.65
2016-05-21T10:45:50.786Z,50.09
2016-05-21T10:46:50.773Z,51.64
2016-05-21T10:47:50.776Z,50.35
2016-05-21T10:48:50.763Z,50.09
2016-05-21T10:49:50.750Z,50.35
2016-05-21T10:50:50.737Z,49.97
2016-05-21T10:51:50.709Z,50.16
2016-05-21T10:52:50.712Z,50.04
2016-05-21T10:53:50.698Z,49.87
2016-05-21T10:54:50.686Z,51.4
2016-05-21T10:55:50.673Z,50.94
2016-05-21T10:56:50.848Z,50.07
2016-05-21T10:57:50.646Z,50.45
2016-05-21T10:58:50.478Z,50.45
2016-05-21T10:59:50.605Z,49.87
2016-05-21T11:00:50.608Z,50.35
2016-05-21T11:01:50.422Z,50.04
2016-05-21T11:02:50.567Z,50.5
2016-05-21T11:03:50.553Z,51.01
2016-05-21T11:04:50.555Z,51.47
2016-05-21T11:05:50.387Z,52.24
2016-05-21T11:06:50.530Z,51.47
2016-05-21T11:07:50.518Z,52.7
2016-05-21T11:08:50.504Z,51.44
2016-05-21T11:09:50.491Z,51.86
2016-05-21T11:10:50.479Z,50.89
2016-05-21T11:11:50.575Z,50.79
2016-05-21T11:12:50.452Z,51.28
2016-05-21T11:13:50.424Z,50.89
2016-05-21T11:14:50.427Z,50.62
2016-05-21T11:15:50.398Z,50.72
2016-05-21T11:16:50.385Z,50.62
2016-05-21T11:17:50.373Z,51.3
2016-05-21T11:18:50.359Z,49.87
2016-05-21T11:19:50.346Z,49.46
2016-05-21T11:20:50.334Z,49.27
2016-05-21T11:21:50.320Z,50.92
2016-05-21T11:22:50.308Z,51.01
2016-05-21T11:23:50.295Z,50.24
2016-05-21T11:24:50.281Z,50.43
2016-05-21T11:25:50.269Z,50.82
2016-05-21T11:26:50.396Z,50.62
2016-05-21T11:27:50.087Z,50.62
2016-05-21T11:28:50.230Z,51.2
2016-05-21T11:29:50.061Z,49.92
2016-05-21T11:30:50.204Z,49.82
2016-05-21T11:31:50.191Z,51.76
2016-05-21T11:32:50.022Z,50.5
2016-05-21T11:33:50.166Z,51.37
2016-05-21T11:34:50.152Z,50.52
2016-05-21T11:35:50.139Z,50.62
2016-05-21T11:36:49.971Z,50.5
2016-05-21T11:37:50.114Z,50.7
2016-05-21T11:38:50.101Z,50.24
2016-05-21T11:39:50.088Z,50.62
2016-05-21T11:40:50.074Z,50.89
2016-05-21T11:41:50.062Z,50.72
2016-05-21T11:42:50.048Z,50.45
2016-05-21T11:43:50.021Z,51.13
2016-05-21T11:44:49.867Z,50.57
2016-05-21T11:45:50.010Z,50.96
2016-05-21T11:46:49.982Z,49.58
2016-05-21T11:47:49.985Z,49.87
2016-05-21T11:48:49.956Z,49.39
2016-05-21T11:49:49.943Z,47.74
2016-05-21T11:50:49.945Z,48.15
2016-05-21T11:51:49.932Z,48.64
2016-05-21T11:52:49.920Z,47.5
2016-05-21T11:53:49.734Z,47.89
2016-05-21T11:54:49.878Z,47.86
2016-05-21T11:55:49.865Z,47.67
2016-05-21T11:56:50.150Z,46.41
2016-05-21T11:57:49.839Z,45.73
2016-05-21T11:58:49.826Z,45.34
2016-05-21T11:59:49.813Z,45.64
2016-05-21T12:00:49.816Z,45.92
2016-05-21T12:01:49.787Z,44.96
2016-05-21T12:02:49.775Z,44.76
2016-05-21T12:03:49.762Z,45.34
2016-05-21T12:04:49.749Z,44.96
2016-05-21T12:05:49.735Z,45.61
2016-05-21T12:06:49.566Z,45.51
2016-05-21T12:07:49.710Z,45.32
2016-05-21T12:08:49.697Z,44.84
2016-05-21T12:09:49.685Z,45.42
2016-05-21T12:10:49.671Z,44.26
2016-05-21T12:11:49.674Z,45.03
2016-05-21T12:12:49.660Z,44.76
2016-05-21T12:13:49.616Z,44.93
2016-05-21T12:14:49.619Z,43.96
2016-05-21T12:15:49.607Z,44.47
2016-05-21T12:16:49.593Z,45.25
2016-05-21T12:17:49.581Z,44.37
2016-05-21T12:18:49.412Z,45.83
2016-05-21T12:19:49.570Z,46.12
2016-05-21T12:20:49.542Z,45.03
2016-05-21T12:21:49.529Z,44.37
2016-05-21T12:22:49.515Z,44.01
2016-05-21T12:23:49.503Z,43.79
2016-05-21T12:24:49.490Z,44.49
2016-05-21T12:25:49.461Z,44.59
2016-05-21T12:26:49.745Z,43.82
2016-05-21T12:27:49.295Z,42.75
2016-05-21T12:28:49.438Z,43.04
2016-05-21T12:29:49.425Z,42.19
2016-05-21T12:30:49.256Z,42.48
2016-05-21T12:31:49.400Z,41.99
2016-05-21T12:32:49.387Z,41.41
2016-05-21T12:33:49.374Z,41.24
2016-05-21T12:34:49.361Z,41.45
2016-05-21T12:35:49.347Z,40.39
2016-05-21T12:36:49.335Z,39.88
2016-05-21T12:37:49.321Z,41.24
2016-05-21T12:38:49.309Z,41.92
2016-05-21T12:39:49.296Z,40.75
2016-05-21T12:40:49.298Z,40.83
2016-05-21T12:41:49.567Z,41.02
2016-05-21T12:42:49.257Z,40.64
2016-05-21T12:43:49.244Z,41.02
2016-05-21T12:44:49.232Z,41
2016-05-21T12:45:49.062Z,41.7
2016-05-21T12:46:49.221Z,41.78
2016-05-21T12:47:49.192Z,41.31
2016-05-21T12:48:49.195Z,41.33
2016-05-21T12:49:49.167Z,40.56
2016-05-21T12:50:49.185Z,40.67
2016-05-21T12:51:49.157Z,40.58
2016-05-21T12:52:49.143Z,39.32
2016-05-21T12:53:49.131Z,38.73